sensor_id;sensor_type;location;lat;lon;timestamp;P1;durP1;ratioP1;P2;durP2;ratioP2
80578;SDS011;69939;52.402;6.608;2023-09-30T00:00:33;7.00;;;4.45;;
80578;SDS011;69939;52.402;6.608;2023-09-30T00:05:31;10.77;;;3.65;;
80578;SDS011;69939;52.402;6.608;2023-09-30T00:08:03;5.78;;;3.25;;
80578;SDS011;69939;52.402;6.608;2023-09-30T00:10:34;7.33;;;3.40;;
80578;SDS011;69939;52.402;6.608;2023-09-30T00:13:03;6.20;;;3.50;;
80578;SDS011;69939;52.402;6.608;2023-09-30T00:18:02;5.72;;;4.20;;
80578;SDS011;69939;52.402;6.608;2023-09-30T00:20:32;4.82;;;3.88;;
80578;SDS011;69939;52.402;6.608;2023-09-30T00:23:05;11.05;;;3.92;;
80578;SDS011;69939;52.402;6.608;2023-09-30T00:25:34;10.70;;;5.78;;
80578;SDS011;69939;52.402;6.608;2023-09-30T00:28:04;9.07;;;4.07;;
80578;SDS011;69939;52.402;6.608;2023-09-30T00:30:34;8.00;;;4.03;;
80578;SDS011;69939;52.402;6.608;2023-09-30T00:33:03;8.05;;;3.53;;
80578;SDS011;69939;52.402;6.608;2023-09-30T00:35:33;7.63;;;3.95;;
80578;SDS011;69939;52.402;6.608;2023-09-30T00:38:05;7.30;;;3.85;;
80578;SDS011;69939;52.402;6.608;2023-09-30T00:40:35;6.07;;;3.67;;
80578;SDS011;69939;52.402;6.608;2023-09-30T00:43:04;5.78;;;3.13;;
80578;SDS011;69939;52.402;6.608;2023-09-30T00:45:35;9.73;;;4.07;;
80578;SDS011;69939;52.402;6.608;2023-09-30T00:48:06;9.65;;;5.22;;
80578;SDS011;69939;52.402;6.608;2023-09-30T00:50:35;4.70;;;3.72;;
80578;SDS011;69939;52.402;6.608;2023-09-30T00:53:08;7.90;;;3.83;;
80578;SDS011;69939;52.402;6.608;2023-09-30T00:55:38;7.97;;;3.75;;
80578;SDS011;69939;52.402;6.608;2023-09-30T00:58:07;11.68;;;5.65;;
80578;SDS011;69939;52.402;6.608;2023-09-30T01:00:38;7.25;;;5.15;;
80578;SDS011;69939;52.402;6.608;2023-09-30T01:03:09;8.45;;;4.78;;
80578;SDS011;69939;52.402;6.608;2023-09-30T01:05:39;8.02;;;6.25;;
80578;SDS011;69939;52.402;6.608;2023-09-30T01:08:11;9.10;;;8.00;;
80578;SDS011;69939;52.402;6.608;2023-09-30T01:10:41;8.30;;;6.15;;
80578;SDS011;69939;52.402;6.608;2023-09-30T01:13:10;8.18;;;5.05;;
80578;SDS011;69939;52.402;6.608;2023-09-30T01:15:39;8.93;;;5.05;;
80578;SDS011;69939;52.402;6.608;2023-09-30T01:18:09;9.00;;;7.45;;
80578;SDS011;69939;52.402;6.608;2023-09-30T01:20:39;6.43;;;4.80;;
80578;SDS011;69939;52.402;6.608;2023-09-30T01:23:11;10.48;;;5.35;;
80578;SDS011;69939;52.402;6.608;2023-09-30T01:25:40;10.35;;;4.82;;
80578;SDS011;69939;52.402;6.608;2023-09-30T01:28:10;10.05;;;5.25;;
80578;SDS011;69939;52.402;6.608;2023-09-30T01:30:41;13.27;;;4.78;;
80578;SDS011;69939;52.402;6.608;2023-09-30T01:33:11;7.40;;;4.10;;
80578;SDS011;69939;52.402;6.608;2023-09-30T01:35:42;8.77;;;4.78;;
80578;SDS011;69939;52.402;6.608;2023-09-30T01:38:14;8.85;;;4.68;;
80578;SDS011;69939;52.402;6.608;2023-09-30T01:40:44;9.80;;;5.40;;
80578;SDS011;69939;52.402;6.608;2023-09-30T01:43:13;9.38;;;4.30;;
80578;SDS011;69939;52.402;6.608;2023-09-30T01:45:42;8.80;;;4.15;;
80578;SDS011;69939;52.402;6.608;2023-09-30T01:48:12;9.68;;;3.88;;
80578;SDS011;69939;52.402;6.608;2023-09-30T01:50:42;11.35;;;4.68;;
80578;SDS011;69939;52.402;6.608;2023-09-30T01:55:42;4.80;;;4.43;;
80578;SDS011;69939;52.402;6.608;2023-09-30T01:58:13;7.22;;;4.13;;
80578;SDS011;69939;52.402;6.608;2023-09-30T02:00:42;9.30;;;4.88;;
80578;SDS011;69939;52.402;6.608;2023-09-30T02:03:12;6.75;;;4.25;;
80578;SDS011;69939;52.402;6.608;2023-09-30T02:05:42;9.60;;;4.65;;
80578;SDS011;69939;52.402;6.608;2023-09-30T02:08:12;7.15;;;4.38;;
80578;SDS011;69939;52.402;6.608;2023-09-30T02:13:14;7.53;;;4.68;;
80578;SDS011;69939;52.402;6.608;2023-09-30T02:15:44;5.38;;;4.88;;
80578;SDS011;69939;52.402;6.608;2023-09-30T02:20:42;7.13;;;4.35;;
80578;SDS011;69939;52.402;6.608;2023-09-30T02:23:12;9.50;;;4.35;;
80578;SDS011;69939;52.402;6.608;2023-09-30T02:25:44;9.63;;;5.40;;
80578;SDS011;69939;52.402;6.608;2023-09-30T02:28:21;12.63;;;4.82;;
80578;SDS011;69939;52.402;6.608;2023-09-30T02:30:50;6.63;;;4.68;;
80578;SDS011;69939;52.402;6.608;2023-09-30T02:33:19;7.47;;;4.65;;
80578;SDS011;69939;52.402;6.608;2023-09-30T02:35:51;9.60;;;5.15;;
80578;SDS011;69939;52.402;6.608;2023-09-30T02:38:20;6.97;;;3.90;;
80578;SDS011;69939;52.402;6.608;2023-09-30T02:40:54;7.93;;;4.63;;
80578;SDS011;69939;52.402;6.608;2023-09-30T02:43:24;10.15;;;4.22;;
80578;SDS011;69939;52.402;6.608;2023-09-30T02:45:53;12.68;;;5.00;;
80578;SDS011;69939;52.402;6.608;2023-09-30T02:48:22;7.82;;;4.68;;
80578;SDS011;69939;52.402;6.608;2023-09-30T02:50:55;7.20;;;4.00;;
80578;SDS011;69939;52.402;6.608;2023-09-30T02:53:25;6.63;;;4.63;;
80578;SDS011;69939;52.402;6.608;2023-09-30T02:55:57;7.18;;;4.38;;
80578;SDS011;69939;52.402;6.608;2023-09-30T02:58:26;11.13;;;5.53;;
80578;SDS011;69939;52.402;6.608;2023-09-30T03:00:56;7.75;;;5.47;;
80578;SDS011;69939;52.402;6.608;2023-09-30T03:03:25;11.00;;;5.25;;
80578;SDS011;69939;52.402;6.608;2023-09-30T03:05:56;7.93;;;6.60;;
80578;SDS011;69939;52.402;6.608;2023-09-30T03:08:25;9.00;;;5.47;;
80578;SDS011;69939;52.402;6.608;2023-09-30T03:10:57;7.57;;;5.18;;
80578;SDS011;69939;52.402;6.608;2023-09-30T03:13:27;10.00;;;5.35;;
80578;SDS011;69939;52.402;6.608;2023-09-30T03:15:56;10.35;;;6.00;;
80578;SDS011;69939;52.402;6.608;2023-09-30T03:18:26;10.32;;;5.35;;
80578;SDS011;69939;52.402;6.608;2023-09-30T03:23:33;8.57;;;5.10;;
80578;SDS011;69939;52.402;6.608;2023-09-30T03:26:06;10.07;;;5.30;;
80578;SDS011;69939;52.402;6.608;2023-09-30T03:28:35;7.13;;;4.93;;
80578;SDS011;69939;52.402;6.608;2023-09-30T03:31:05;9.68;;;5.38;;
80578;SDS011;69939;52.402;6.608;2023-09-30T03:33:37;9.85;;;6.50;;
80578;SDS011;69939;52.402;6.608;2023-09-30T03:36:08;7.60;;;5.68;;
80578;SDS011;69939;52.402;6.608;2023-09-30T03:38:37;11.43;;;5.93;;
80578;SDS011;69939;52.402;6.608;2023-09-30T03:41:09;12.65;;;6.03;;
80578;SDS011;69939;52.402;6.608;2023-09-30T03:43:39;7.63;;;5.28;;
80578;SDS011;69939;52.402;6.608;2023-09-30T03:46:08;10.20;;;5.90;;
80578;SDS011;69939;52.402;6.608;2023-09-30T03:51:10;10.10;;;5.32;;
80578;SDS011;69939;52.402;6.608;2023-09-30T03:53:40;11.63;;;5.78;;
80578;SDS011;69939;52.402;6.608;2023-09-30T03:56:12;9.13;;;6.68;;
80578;SDS011;69939;52.402;6.608;2023-09-30T03:58:43;9.55;;;5.97;;
80578;SDS011;69939;52.402;6.608;2023-09-30T04:01:13;13.35;;;6.20;;
80578;SDS011;69939;52.402;6.608;2023-09-30T04:03:45;9.40;;;6.35;;
80578;SDS011;69939;52.402;6.608;2023-09-30T04:06:14;12.07;;;6.32;;
80578;SDS011;69939;52.402;6.608;2023-09-30T04:08:43;10.30;;;6.60;;
80578;SDS011;69939;52.402;6.608;2023-09-30T04:13:45;9.07;;;6.18;;
80578;SDS011;69939;52.402;6.608;2023-09-30T04:16:15;11.23;;;7.32;;
80578;SDS011;69939;52.402;6.608;2023-09-30T04:18:46;9.98;;;6.07;;
80578;SDS011;69939;52.402;6.608;2023-09-30T04:21:15;9.70;;;7.50;;
80578;SDS011;69939;52.402;6.608;2023-09-30T04:23:44;9.48;;;7.03;;
80578;SDS011;69939;52.402;6.608;2023-09-30T04:26:17;8.07;;;6.60;;
80578;SDS011;69939;52.402;6.608;2023-09-30T04:28:46;11.63;;;6.38;;
80578;SDS011;69939;52.402;6.608;2023-09-30T04:31:15;12.88;;;7.45;;
80578;SDS011;69939;52.402;6.608;2023-09-30T04:33:46;12.82;;;7.22;;
80578;SDS011;69939;52.402;6.608;2023-09-30T04:36:16;10.38;;;6.57;;
80578;SDS011;69939;52.402;6.608;2023-09-30T04:38:46;10.45;;;7.80;;
80578;SDS011;69939;52.402;6.608;2023-09-30T04:41:17;12.15;;;7.38;;
80578;SDS011;69939;52.402;6.608;2023-09-30T04:43:47;14.27;;;7.57;;
80578;SDS011;69939;52.402;6.608;2023-09-30T04:46:17;9.13;;;7.20;;
80578;SDS011;69939;52.402;6.608;2023-09-30T04:48:48;10.90;;;9.55;;
80578;SDS011;69939;52.402;6.608;2023-09-30T04:51:17;12.25;;;10.90;;
80578;SDS011;69939;52.402;6.608;2023-09-30T04:53:50;12.70;;;7.82;;
80578;SDS011;69939;52.402;6.608;2023-09-30T04:56:22;12.13;;;7.55;;
80578;SDS011;69939;52.402;6.608;2023-09-30T04:58:52;13.88;;;8.13;;
80578;SDS011;69939;52.402;6.608;2023-09-30T05:01:21;8.93;;;6.88;;
80578;SDS011;69939;52.402;6.608;2023-09-30T05:03:50;12.27;;;6.97;;
80578;SDS011;69939;52.402;6.608;2023-09-30T05:06:20;11.80;;;8.02;;
80578;SDS011;69939;52.402;6.608;2023-09-30T05:08:52;10.15;;;7.57;;
80578;SDS011;69939;52.402;6.608;2023-09-30T05:13:52;9.35;;;8.13;;
80578;SDS011;69939;52.402;6.608;2023-09-30T05:16:22;9.70;;;7.07;;
80578;SDS011;69939;52.402;6.608;2023-09-30T05:18:52;11.50;;;8.50;;
80578;SDS011;69939;52.402;6.608;2023-09-30T05:21:21;13.10;;;7.82;;
80578;SDS011;69939;52.402;6.608;2023-09-30T05:26:19;11.65;;;7.53;;
80578;SDS011;69939;52.402;6.608;2023-09-30T05:31:19;9.18;;;6.85;;
80578;SDS011;69939;52.402;6.608;2023-09-30T05:33:49;13.27;;;6.80;;
80578;SDS011;69939;52.402;6.608;2023-09-30T05:38:47;12.32;;;7.30;;
80578;SDS011;69939;52.402;6.608;2023-09-30T05:41:17;8.90;;;7.07;;
80578;SDS011;69939;52.402;6.608;2023-09-30T05:43:46;11.70;;;8.02;;
80578;SDS011;69939;52.402;6.608;2023-09-30T05:46:18;12.80;;;8.13;;
80578;SDS011;69939;52.402;6.608;2023-09-30T05:48:47;12.07;;;7.10;;
80578;SDS011;69939;52.402;6.608;2023-09-30T05:51:16;14.00;;;7.43;;
80578;SDS011;69939;52.402;6.608;2023-09-30T05:53:45;15.63;;;7.55;;
80578;SDS011;69939;52.402;6.608;2023-09-30T05:56:15;13.02;;;9.88;;
80578;SDS011;69939;52.402;6.608;2023-09-30T05:58:44;13.80;;;6.95;;
80578;SDS011;69939;52.402;6.608;2023-09-30T06:01:13;13.27;;;8.18;;
80578;SDS011;69939;52.402;6.608;2023-09-30T06:03:46;10.55;;;8.13;;
80578;SDS011;69939;52.402;6.608;2023-09-30T06:06:16;12.38;;;9.93;;
80578;SDS011;69939;52.402;6.608;2023-09-30T06:08:45;10.03;;;8.87;;
80578;SDS011;69939;52.402;6.608;2023-09-30T06:11:17;11.38;;;8.30;;
80578;SDS011;69939;52.402;6.608;2023-09-30T06:13:49;14.60;;;11.40;;
80578;SDS011;69939;52.402;6.608;2023-09-30T06:18:51;11.18;;;7.72;;
80578;SDS011;69939;52.402;6.608;2023-09-30T06:21:20;10.02;;;8.77;;
80578;SDS011;69939;52.402;6.608;2023-09-30T06:23:50;14.70;;;12.65;;
80578;SDS011;69939;52.402;6.608;2023-09-30T06:26:19;16.67;;;8.57;;
80578;SDS011;69939;52.402;6.608;2023-09-30T06:28:50;9.55;;;8.48;;
80578;SDS011;69939;52.402;6.608;2023-09-30T06:31:21;14.27;;;8.38;;
80578;SDS011;69939;52.402;6.608;2023-09-30T06:33:54;11.50;;;7.70;;
80578;SDS011;69939;52.402;6.608;2023-09-30T06:36:25;12.90;;;7.60;;
80578;SDS011;69939;52.402;6.608;2023-09-30T06:41:23;13.27;;;9.18;;
80578;SDS011;69939;52.402;6.608;2023-09-30T06:43:53;13.80;;;9.93;;
80578;SDS011;69939;52.402;6.608;2023-09-30T06:46:22;16.98;;;9.15;;
80578;SDS011;69939;52.402;6.608;2023-09-30T06:51:23;16.85;;;8.60;;
80578;SDS011;69939;52.402;6.608;2023-09-30T06:53:52;14.38;;;9.27;;
80578;SDS011;69939;52.402;6.608;2023-09-30T06:56:21;14.63;;;9.10;;
80578;SDS011;69939;52.402;6.608;2023-09-30T06:58:50;14.43;;;8.25;;
80578;SDS011;69939;52.402;6.608;2023-09-30T07:01:19;13.85;;;10.32;;
80578;SDS011;69939;52.402;6.608;2023-09-30T07:03:48;12.10;;;9.55;;
80578;SDS011;69939;52.402;6.608;2023-09-30T07:06:24;17.65;;;10.70;;
80578;SDS011;69939;52.402;6.608;2023-09-30T07:08:53;12.77;;;9.25;;
80578;SDS011;69939;52.402;6.608;2023-09-30T07:11:31;12.63;;;9.85;;
80578;SDS011;69939;52.402;6.608;2023-09-30T07:16:45;12.50;;;9.20;;
80578;SDS011;69939;52.402;6.608;2023-09-30T07:19:14;12.07;;;9.65;;
80578;SDS011;69939;52.402;6.608;2023-09-30T07:21:46;15.05;;;9.43;;
80578;SDS011;69939;52.402;6.608;2023-09-30T07:24:15;16.33;;;10.40;;
80578;SDS011;69939;52.402;6.608;2023-09-30T07:26:44;13.27;;;10.60;;
80578;SDS011;69939;52.402;6.608;2023-09-30T07:29:13;16.58;;;12.63;;
80578;SDS011;69939;52.402;6.608;2023-09-30T07:31:42;16.20;;;10.13;;
80578;SDS011;69939;52.402;6.608;2023-09-30T07:34:11;13.52;;;9.50;;
80578;SDS011;69939;52.402;6.608;2023-09-30T07:39:12;14.45;;;10.57;;
80578;SDS011;69939;52.402;6.608;2023-09-30T07:41:42;16.60;;;12.35;;
80578;SDS011;69939;52.402;6.608;2023-09-30T07:44:11;15.35;;;12.23;;
80578;SDS011;69939;52.402;6.608;2023-09-30T07:46:41;17.25;;;11.75;;
80578;SDS011;69939;52.402;6.608;2023-09-30T07:49:10;15.95;;;12.95;;
80578;SDS011;69939;52.402;6.608;2023-09-30T07:51:39;15.55;;;10.48;;
80578;SDS011;69939;52.402;6.608;2023-09-30T07:54:08;15.27;;;11.20;;
80578;SDS011;69939;52.402;6.608;2023-09-30T07:56:42;16.05;;;12.30;;
80578;SDS011;69939;52.402;6.608;2023-09-30T08:01:41;15.07;;;12.70;;
80578;SDS011;69939;52.402;6.608;2023-09-30T08:04:10;16.38;;;12.50;;
80578;SDS011;69939;52.402;6.608;2023-09-30T08:06:40;15.65;;;12.35;;
80578;SDS011;69939;52.402;6.608;2023-09-30T08:09:12;15.00;;;12.15;;
80578;SDS011;69939;52.402;6.608;2023-09-30T08:11:43;12.43;;;10.32;;
80578;SDS011;69939;52.402;6.608;2023-09-30T08:14:12;12.43;;;11.18;;
80578;SDS011;69939;52.402;6.608;2023-09-30T08:16:42;12.25;;;10.40;;
80578;SDS011;69939;52.402;6.608;2023-09-30T08:19:11;13.23;;;11.32;;
80578;SDS011;69939;52.402;6.608;2023-09-30T08:21:40;16.05;;;12.07;;
80578;SDS011;69939;52.402;6.608;2023-09-30T08:24:12;14.55;;;10.75;;
80578;SDS011;69939;52.402;6.608;2023-09-30T08:26:42;16.25;;;11.10;;
80578;SDS011;69939;52.402;6.608;2023-09-30T08:29:16;11.40;;;9.60;;
80578;SDS011;69939;52.402;6.608;2023-09-30T08:31:46;15.35;;;12.20;;
80578;SDS011;69939;52.402;6.608;2023-09-30T08:34:15;14.93;;;11.82;;
80578;SDS011;69939;52.402;6.608;2023-09-30T08:36:46;13.93;;;11.77;;
80578;SDS011;69939;52.402;6.608;2023-09-30T08:39:18;14.38;;;10.82;;
80578;SDS011;69939;52.402;6.608;2023-09-30T08:41:47;14.93;;;11.20;;
80578;SDS011;69939;52.402;6.608;2023-09-30T08:44:16;13.07;;;11.70;;
80578;SDS011;69939;52.402;6.608;2023-09-30T08:46:46;13.27;;;9.80;;
80578;SDS011;69939;52.402;6.608;2023-09-30T08:49:17;14.25;;;11.23;;
80578;SDS011;69939;52.402;6.608;2023-09-30T08:51:48;13.13;;;11.13;;
80578;SDS011;69939;52.402;6.608;2023-09-30T08:54:21;13.63;;;11.68;;
80578;SDS011;69939;52.402;6.608;2023-09-30T08:56:51;15.80;;;11.75;;
80578;SDS011;69939;52.402;6.608;2023-09-30T08:59:21;19.13;;;10.55;;
80578;SDS011;69939;52.402;6.608;2023-09-30T09:01:52;16.15;;;11.35;;
80578;SDS011;69939;52.402;6.608;2023-09-30T09:04:24;14.30;;;10.15;;
80578;SDS011;69939;52.402;6.608;2023-09-30T09:06:56;11.35;;;9.57;;
80578;SDS011;69939;52.402;6.608;2023-09-30T09:09:30;12.82;;;10.55;;
80578;SDS011;69939;52.402;6.608;2023-09-30T09:11:59;12.38;;;9.63;;
80578;SDS011;69939;52.402;6.608;2023-09-30T09:14:36;12.55;;;10.45;;
80578;SDS011;69939;52.402;6.608;2023-09-30T09:17:06;13.63;;;9.77;;
80578;SDS011;69939;52.402;6.608;2023-09-30T09:19:36;11.00;;;8.70;;
80578;SDS011;69939;52.402;6.608;2023-09-30T09:22:06;13.95;;;10.35;;
80578;SDS011;69939;52.402;6.608;2023-09-30T09:27:07;13.98;;;10.02;;
80578;SDS011;69939;52.402;6.608;2023-09-30T09:29:41;11.40;;;8.93;;
80578;SDS011;69939;52.402;6.608;2023-09-30T09:32:11;11.68;;;9.05;;
80578;SDS011;69939;52.402;6.608;2023-09-30T09:34:42;12.05;;;8.50;;
80578;SDS011;69939;52.402;6.608;2023-09-30T09:37:14;11.70;;;9.30;;
80578;SDS011;69939;52.402;6.608;2023-09-30T09:39:53;12.13;;;8.88;;
80578;SDS011;69939;52.402;6.608;2023-09-30T09:42:25;10.02;;;8.23;;
80578;SDS011;69939;52.402;6.608;2023-09-30T09:44:56;8.85;;;7.53;;
80578;SDS011;69939;52.402;6.608;2023-09-30T09:47:27;10.07;;;7.43;;
80578;SDS011;69939;52.402;6.608;2023-09-30T09:49:59;10.55;;;7.55;;
80578;SDS011;69939;52.402;6.608;2023-09-30T09:52:33;10.00;;;7.20;;
80578;SDS011;69939;52.402;6.608;2023-09-30T09:55:06;13.27;;;7.63;;
80578;SDS011;69939;52.402;6.608;2023-09-30T09:57:38;11.73;;;7.95;;
80578;SDS011;69939;52.402;6.608;2023-09-30T10:00:10;9.30;;;7.18;;
80578;SDS011;69939;52.402;6.608;2023-09-30T10:02:43;8.23;;;7.40;;
80578;SDS011;69939;52.402;6.608;2023-09-30T10:05:14;11.48;;;8.50;;
80578;SDS011;69939;52.402;6.608;2023-09-30T10:07:45;14.43;;;7.90;;
80578;SDS011;69939;52.402;6.608;2023-09-30T10:10:26;9.60;;;7.53;;
80578;SDS011;69939;52.402;6.608;2023-09-30T10:12:56;9.25;;;7.78;;
80578;SDS011;69939;52.402;6.608;2023-09-30T10:15:37;8.10;;;6.70;;
80578;SDS011;69939;52.402;6.608;2023-09-30T10:18:08;7.03;;;5.07;;
80578;SDS011;69939;52.402;6.608;2023-09-30T10:20:39;5.70;;;5.07;;
80578;SDS011;69939;52.402;6.608;2023-09-30T10:26:15;7.60;;;4.70;;
80578;SDS011;69939;52.402;6.608;2023-09-30T10:28:45;7.15;;;4.90;;
80578;SDS011;69939;52.402;6.608;2023-09-30T10:31:17;8.88;;;6.40;;
80578;SDS011;69939;52.402;6.608;2023-09-30T10:36:50;5.03;;;4.55;;
80578;SDS011;69939;52.402;6.608;2023-09-30T10:42:46;5.55;;;4.50;;
80578;SDS011;69939;52.402;6.608;2023-09-30T10:51:12;4.65;;;3.42;;
80578;SDS011;69939;52.402;6.608;2023-09-30T10:53:49;5.53;;;4.95;;
80578;SDS011;69939;52.402;6.608;2023-09-30T10:56:22;8.48;;;3.97;;
80578;SDS011;69939;52.402;6.608;2023-09-30T10:58:55;4.53;;;4.07;;
80578;SDS011;69939;52.402;6.608;2023-09-30T11:01:25;6.72;;;4.43;;
80578;SDS011;69939;52.402;6.608;2023-09-30T11:04:05;4.25;;;3.67;;
80578;SDS011;69939;52.402;6.608;2023-09-30T11:06:34;6.13;;;4.40;;
80578;SDS011;69939;52.402;6.608;2023-09-30T11:09:08;6.78;;;4.45;;
80578;SDS011;69939;52.402;6.608;2023-09-30T11:11:39;5.90;;;3.88;;
80578;SDS011;69939;52.402;6.608;2023-09-30T11:16:51;5.80;;;4.80;;
80578;SDS011;69939;52.402;6.608;2023-09-30T11:19:22;5.03;;;4.45;;
80578;SDS011;69939;52.402;6.608;2023-09-30T11:21:53;7.60;;;5.28;;
80578;SDS011;69939;52.402;6.608;2023-09-30T11:24:23;11.88;;;4.45;;
80578;SDS011;69939;52.402;6.608;2023-09-30T11:26:54;4.97;;;4.45;;
80578;SDS011;69939;52.402;6.608;2023-09-30T11:29:26;4.85;;;3.55;;
80578;SDS011;69939;52.402;6.608;2023-09-30T11:31:56;7.68;;;4.70;;
80578;SDS011;69939;52.402;6.608;2023-09-30T11:34:31;4.60;;;3.83;;
80578;SDS011;69939;52.402;6.608;2023-09-30T11:37:02;5.95;;;5.43;;
80578;SDS011;69939;52.402;6.608;2023-09-30T11:39:31;7.50;;;4.68;;
80578;SDS011;69939;52.402;6.608;2023-09-30T11:42:01;6.57;;;4.70;;
80578;SDS011;69939;52.402;6.608;2023-09-30T11:44:46;8.63;;;4.72;;
80578;SDS011;69939;52.402;6.608;2023-09-30T11:47:16;5.47;;;3.95;;
80578;SDS011;69939;52.402;6.608;2023-09-30T11:49:59;5.47;;;4.95;;
80578;SDS011;69939;52.402;6.608;2023-09-30T11:52:29;6.18;;;4.60;;
80578;SDS011;69939;52.402;6.608;2023-09-30T11:55:01;6.07;;;4.20;;
80578;SDS011;69939;52.402;6.608;2023-09-30T11:57:38;5.30;;;4.85;;
80578;SDS011;69939;52.402;6.608;2023-09-30T12:00:10;5.60;;;4.22;;
80578;SDS011;69939;52.402;6.608;2023-09-30T12:02:42;4.68;;;3.28;;
80578;SDS011;69939;52.402;6.608;2023-09-30T12:07:39;5.75;;;4.20;;
80578;SDS011;69939;52.402;6.608;2023-09-30T12:10:09;6.38;;;4.35;;
80578;SDS011;69939;52.402;6.608;2023-09-30T12:12:40;4.43;;;3.72;;
80578;SDS011;69939;52.402;6.608;2023-09-30T12:15:12;4.47;;;3.72;;
80578;SDS011;69939;52.402;6.608;2023-09-30T12:17:41;6.30;;;4.05;;
80578;SDS011;69939;52.402;6.608;2023-09-30T12:20:11;4.55;;;4.18;;
80578;SDS011;69939;52.402;6.608;2023-09-30T12:22:43;5.95;;;3.92;;
80578;SDS011;69939;52.402;6.608;2023-09-30T12:25:12;4.93;;;3.28;;
80578;SDS011;69939;52.402;6.608;2023-09-30T12:27:44;3.45;;;3.15;;
80578;SDS011;69939;52.402;6.608;2023-09-30T12:30:16;5.43;;;2.63;;
80578;SDS011;69939;52.402;6.608;2023-09-30T12:32:47;6.70;;;3.17;;
80578;SDS011;69939;52.402;6.608;2023-09-30T12:35:16;4.63;;;3.00;;
80578;SDS011;69939;52.402;6.608;2023-09-30T12:37:46;5.05;;;3.50;;
80578;SDS011;69939;52.402;6.608;2023-09-30T12:40:16;5.35;;;3.55;;
80578;SDS011;69939;52.402;6.608;2023-09-30T12:42:45;4.53;;;3.10;;
80578;SDS011;69939;52.402;6.608;2023-09-30T12:45:16;5.90;;;3.28;;
80578;SDS011;69939;52.402;6.608;2023-09-30T12:47:46;5.70;;;4.95;;
80578;SDS011;69939;52.402;6.608;2023-09-30T12:50:17;5.22;;;4.28;;
80578;SDS011;69939;52.402;6.608;2023-09-30T12:55:15;6.75;;;4.38;;
80578;SDS011;69939;52.402;6.608;2023-09-30T12:57:44;7.03;;;3.73;;
80578;SDS011;69939;52.402;6.608;2023-09-30T13:00:19;4.32;;;3.92;;
80578;SDS011;69939;52.402;6.608;2023-09-30T13:02:51;7.88;;;4.50;;
80578;SDS011;69939;52.402;6.608;2023-09-30T13:05:20;6.47;;;4.10;;
80578;SDS011;69939;52.402;6.608;2023-09-30T13:07:50;5.10;;;3.88;;
80578;SDS011;69939;52.402;6.608;2023-09-30T13:10:20;7.80;;;4.03;;
80578;SDS011;69939;52.402;6.608;2023-09-30T13:12:50;6.70;;;4.85;;
80578;SDS011;69939;52.402;6.608;2023-09-30T13:15:23;7.35;;;5.35;;
80578;SDS011;69939;52.402;6.608;2023-09-30T13:17:52;5.75;;;4.60;;
80578;SDS011;69939;52.402;6.608;2023-09-30T13:20:21;5.63;;;4.07;;
80578;SDS011;69939;52.402;6.608;2023-09-30T13:22:50;6.00;;;5.38;;
80578;SDS011;69939;52.402;6.608;2023-09-30T13:25:19;8.00;;;4.53;;
80578;SDS011;69939;52.402;6.608;2023-09-30T13:27:49;6.97;;;5.22;;
80578;SDS011;69939;52.402;6.608;2023-09-30T13:30:18;7.13;;;4.93;;
80578;SDS011;69939;52.402;6.608;2023-09-30T13:32:50;6.00;;;4.07;;
80578;SDS011;69939;52.402;6.608;2023-09-30T13:35:19;6.35;;;4.93;;
80578;SDS011;69939;52.402;6.608;2023-09-30T13:37:50;6.78;;;5.35;;
80578;SDS011;69939;52.402;6.608;2023-09-30T13:40:19;8.30;;;4.57;;
80578;SDS011;69939;52.402;6.608;2023-09-30T13:42:51;6.63;;;4.15;;
80578;SDS011;69939;52.402;6.608;2023-09-30T13:45:21;5.70;;;4.20;;
80578;SDS011;69939;52.402;6.608;2023-09-30T13:47:52;7.10;;;4.22;;
80578;SDS011;69939;52.402;6.608;2023-09-30T13:50:22;5.20;;;4.70;;
80578;SDS011;69939;52.402;6.608;2023-09-30T13:52:51;7.65;;;4.32;;
80578;SDS011;69939;52.402;6.608;2023-09-30T13:55:20;5.88;;;4.57;;
80578;SDS011;69939;52.402;6.608;2023-09-30T13:57:51;9.88;;;4.60;;
80578;SDS011;69939;52.402;6.608;2023-09-30T14:00:20;5.82;;;4.20;;
80578;SDS011;69939;52.402;6.608;2023-09-30T14:02:49;4.78;;;4.32;;
80578;SDS011;69939;52.402;6.608;2023-09-30T14:05:24;5.97;;;3.85;;
80578;SDS011;69939;52.402;6.608;2023-09-30T14:07:53;7.35;;;4.38;;
80578;SDS011;69939;52.402;6.608;2023-09-30T14:10:23;6.57;;;4.05;;
80578;SDS011;69939;52.402;6.608;2023-09-30T14:12:52;4.05;;;3.42;;
80578;SDS011;69939;52.402;6.608;2023-09-30T14:15:21;7.85;;;4.93;;
80578;SDS011;69939;52.402;6.608;2023-09-30T14:17:55;6.00;;;4.00;;
80578;SDS011;69939;52.402;6.608;2023-09-30T14:20:24;6.65;;;5.22;;
80578;SDS011;69939;52.402;6.608;2023-09-30T14:22:54;7.85;;;4.88;;
80578;SDS011;69939;52.402;6.608;2023-09-30T14:25:23;6.38;;;4.15;;
80578;SDS011;69939;52.402;6.608;2023-09-30T14:27:52;6.70;;;5.20;;
80578;SDS011;69939;52.402;6.608;2023-09-30T14:30:21;7.43;;;4.60;;
80578;SDS011;69939;52.402;6.608;2023-09-30T14:32:50;5.50;;;4.03;;
80578;SDS011;69939;52.402;6.608;2023-09-30T14:35:22;7.40;;;4.60;;
80578;SDS011;69939;52.402;6.608;2023-09-30T14:37:52;6.78;;;5.18;;
80578;SDS011;69939;52.402;6.608;2023-09-30T14:40:22;6.10;;;4.63;;
80578;SDS011;69939;52.402;6.608;2023-09-30T14:45:19;7.72;;;4.60;;
80578;SDS011;69939;52.402;6.608;2023-09-30T14:47:49;7.63;;;4.03;;
80578;SDS011;69939;52.402;6.608;2023-09-30T14:50:19;7.15;;;5.00;;
80578;SDS011;69939;52.402;6.608;2023-09-30T14:52:55;7.22;;;3.85;;
80578;SDS011;69939;52.402;6.608;2023-09-30T14:55:24;5.70;;;4.63;;
80578;SDS011;69939;52.402;6.608;2023-09-30T14:57:55;5.35;;;4.40;;
80578;SDS011;69939;52.402;6.608;2023-09-30T15:00:24;5.57;;;3.92;;
80578;SDS011;69939;52.402;6.608;2023-09-30T15:02:53;7.35;;;4.10;;
80578;SDS011;69939;52.402;6.608;2023-09-30T15:05:25;7.55;;;4.47;;
80578;SDS011;69939;52.402;6.608;2023-09-30T15:07:55;6.25;;;3.97;;
80578;SDS011;69939;52.402;6.608;2023-09-30T15:10:26;6.22;;;4.28;;
80578;SDS011;69939;52.402;6.608;2023-09-30T15:12:55;6.95;;;4.47;;
80578;SDS011;69939;52.402;6.608;2023-09-30T15:15:25;6.00;;;4.13;;
80578;SDS011;69939;52.402;6.608;2023-09-30T15:17:54;5.83;;;5.00;;
80578;SDS011;69939;52.402;6.608;2023-09-30T15:20:25;6.10;;;4.93;;
80578;SDS011;69939;52.402;6.608;2023-09-30T15:22:54;9.18;;;5.30;;
80578;SDS011;69939;52.402;6.608;2023-09-30T15:25:25;7.90;;;4.68;;
80578;SDS011;69939;52.402;6.608;2023-09-30T15:27:54;4.57;;;4.13;;
80578;SDS011;69939;52.402;6.608;2023-09-30T15:30:23;6.53;;;4.78;;
80578;SDS011;69939;52.402;6.608;2023-09-30T15:32:52;6.53;;;5.22;;
80578;SDS011;69939;52.402;6.608;2023-09-30T15:35:21;6.25;;;5.63;;
80578;SDS011;69939;52.402;6.608;2023-09-30T15:40:22;9.00;;;5.30;;
80578;SDS011;69939;52.402;6.608;2023-09-30T15:42:51;6.45;;;4.93;;
80578;SDS011;69939;52.402;6.608;2023-09-30T15:45:21;10.23;;;5.32;;
80578;SDS011;69939;52.402;6.608;2023-09-30T15:47:50;9.45;;;5.18;;
80578;SDS011;69939;52.402;6.608;2023-09-30T15:50:21;6.75;;;5.07;;
80578;SDS011;69939;52.402;6.608;2023-09-30T15:52:53;6.65;;;5.28;;
80578;SDS011;69939;52.402;6.608;2023-09-30T15:55:22;5.45;;;4.93;;
80578;SDS011;69939;52.402;6.608;2023-09-30T16:00:19;6.45;;;5.47;;
80578;SDS011;69939;52.402;6.608;2023-09-30T16:02:49;7.85;;;5.75;;
80578;SDS011;69939;52.402;6.608;2023-09-30T16:07:46;6.82;;;5.88;;
80578;SDS011;69939;52.402;6.608;2023-09-30T16:10:18;8.68;;;5.22;;
80578;SDS011;69939;52.402;6.608;2023-09-30T16:12:47;9.00;;;6.07;;
80578;SDS011;69939;52.402;6.608;2023-09-30T16:15:16;11.18;;;5.03;;
80578;SDS011;69939;52.402;6.608;2023-09-30T16:17:46;5.85;;;5.32;;
80578;SDS011;69939;52.402;6.608;2023-09-30T16:20:15;9.00;;;5.63;;